sensor_id;sensor_type;location;lat;lon;timestamp;temperature;humidity
65072;DHT22;51663;52.310;17.016;2023-04-29T00:03:25;32.10;23.20
65072;DHT22;51663;52.310;17.016;2023-04-29T00:06:30;32.00;23.20
65072;DHT22;51663;52.310;17.016;2023-04-29T00:09:33;31.90;23.20
65072;DHT22;51663;52.310;17.016;2023-04-29T00:12:35;32.00;23.30
65072;DHT22;51663;52.310;17.016;2023-04-29T00:15:40;32.00;23.20
65072;DHT22;51663;52.310;17.016;2023-04-29T00:18:45;32.00;23.30
65072;DHT22;51663;52.310;17.016;2023-04-29T00:21:52;32.10;23.30
65072;DHT22;51663;52.310;17.016;2023-04-29T00:24:55;32.10;23.30
65072;DHT22;51663;52.310;17.016;2023-04-29T00:27:58;32.10;23.30
65072;DHT22;51663;52.310;17.016;2023-04-29T00:31:03;32.20;23.30
65072;DHT22;51663;52.310;17.016;2023-04-29T00:34:09;32.10;23.20
65072;DHT22;51663;52.310;17.016;2023-04-29T00:37:12;32.20;23.40
65072;DHT22;51663;52.310;17.016;2023-04-29T00:40:15;32.30;23.30
65072;DHT22;51663;52.310;17.016;2023-04-29T00:43:18;32.30;23.40
65072;DHT22;51663;52.310;17.016;2023-04-29T00:46:21;32.30;23.30
65072;DHT22;51663;52.310;17.016;2023-04-29T00:49:31;32.30;23.30
65072;DHT22;51663;52.310;17.016;2023-04-29T00:52:34;32.30;23.40
65072;DHT22;51663;52.310;17.016;2023-04-29T00:55:40;32.30;23.50
65072;DHT22;51663;52.310;17.016;2023-04-29T00:58:43;32.20;23.50
65072;DHT22;51663;52.310;17.016;2023-04-29T01:01:55;32.10;23.60
65072;DHT22;51663;52.310;17.016;2023-04-29T01:04:58;32.10;23.70
65072;DHT22;51663;52.310;17.016;2023-04-29T01:08:16;32.10;23.90
65072;DHT22;51663;52.310;17.016;2023-04-29T01:11:22;32.10;23.80
65072;DHT22;51663;52.310;17.016;2023-04-29T01:14:27;32.10;24.00
65072;DHT22;51663;52.310;17.016;2023-04-29T01:17:37;32.10;24.00
65072;DHT22;51663;52.310;17.016;2023-04-29T01:20:42;32.10;23.80
65072;DHT22;51663;52.310;17.016;2023-04-29T01:23:48;32.20;24.00
65072;DHT22;51663;52.310;17.016;2023-04-29T01:27:04;32.20;23.90
65072;DHT22;51663;52.310;17.016;2023-04-29T01:30:27;32.10;24.00
65072;DHT22;51663;52.310;17.016;2023-04-29T01:33:55;32.20;24.20
65072;DHT22;51663;52.310;17.016;2023-04-29T01:37:34;32.10;24.20
65072;DHT22;51663;52.310;17.016;2023-04-29T01:44:17;32.10;24.30
65072;DHT22;51663;52.310;17.016;2023-04-29T01:47:24;32.20;24.30
65072;DHT22;51663;52.310;17.016;2023-04-29T01:50:30;32.30;24.20
65072;DHT22;51663;52.310;17.016;2023-04-29T01:53:34;32.20;24.20
65072;DHT22;51663;52.310;17.016;2023-04-29T01:56:40;32.30;24.20
65072;DHT22;51663;52.310;17.016;2023-04-29T01:59:46;32.30;24.20
65072;DHT22;51663;52.310;17.016;2023-04-29T02:02:49;32.30;24.20
65072;DHT22;51663;52.310;17.016;2023-04-29T02:05:52;32.30;24.20
65072;DHT22;51663;52.310;17.016;2023-04-29T02:08:56;32.30;24.40
65072;DHT22;51663;52.310;17.016;2023-04-29T02:11:59;32.30;24.40
65072;DHT22;51663;52.310;17.016;2023-04-29T02:15:05;32.30;24.20
65072;DHT22;51663;52.310;17.016;2023-04-29T02:18:08;32.40;24.30
65072;DHT22;51663;52.310;17.016;2023-04-29T02:21:14;32.40;24.40
65072;DHT22;51663;52.310;17.016;2023-04-29T02:24:20;32.40;24.40
65072;DHT22;51663;52.310;17.016;2023-04-29T02:27:24;32.30;24.40
65072;DHT22;51663;52.310;17.016;2023-04-29T02:30:28;32.20;24.50
65072;DHT22;51663;52.310;17.016;2023-04-29T02:33:35;32.20;24.70
65072;DHT22;51663;52.310;17.016;2023-04-29T02:36:37;32.20;24.70
65072;DHT22;51663;52.310;17.016;2023-04-29T02:39:42;32.20;24.60
65072;DHT22;51663;52.310;17.016;2023-04-29T02:42:45;32.30;24.50
65072;DHT22;51663;52.310;17.016;2023-04-29T02:45:48;32.30;24.50
65072;DHT22;51663;52.310;17.016;2023-04-29T02:48:51;32.20;24.40
65072;DHT22;51663;52.310;17.016;2023-04-29T02:51:58;32.00;24.40
65072;DHT22;51663;52.310;17.016;2023-04-29T02:55:04;32.00;24.50
65072;DHT22;51663;52.310;17.016;2023-04-29T02:58:08;32.00;24.60
65072;DHT22;51663;52.310;17.016;2023-04-29T03:01:14;32.00;24.50
65072;DHT22;51663;52.310;17.016;2023-04-29T03:04:20;32.10;24.50
65072;DHT22;51663;52.310;17.016;2023-04-29T03:07:28;32.00;24.60
65072;DHT22;51663;52.310;17.016;2023-04-29T03:10:32;31.80;24.60
65072;DHT22;51663;52.310;17.016;2023-04-29T03:13:42;31.70;24.70
65072;DHT22;51663;52.310;17.016;2023-04-29T03:16:45;31.50;24.90
65072;DHT22;51663;52.310;17.016;2023-04-29T03:19:48;31.40;25.00
65072;DHT22;51663;52.310;17.016;2023-04-29T03:22:58;31.40;25.10
65072;DHT22;51663;52.310;17.016;2023-04-29T03:26:01;31.50;25.10
65072;DHT22;51663;52.310;17.016;2023-04-29T03:29:06;31.50;25.30
65072;DHT22;51663;52.310;17.016;2023-04-29T03:32:12;31.60;26.10
65072;DHT22;51663;52.310;17.016;2023-04-29T03:35:14;31.40;26.20
65072;DHT22;51663;52.310;17.016;2023-04-29T03:38:19;31.50;26.00
65072;DHT22;51663;52.310;17.016;2023-04-29T03:41:25;31.40;25.90
65072;DHT22;51663;52.310;17.016;2023-04-29T03:44:43;31.40;25.90
65072;DHT22;51663;52.310;17.016;2023-04-29T03:47:49;31.40;25.80
65072;DHT22;51663;52.310;17.016;2023-04-29T03:51:01;31.40;25.90
65072;DHT22;51663;52.310;17.016;2023-04-29T03:54:04;31.60;25.90
65072;DHT22;51663;52.310;17.016;2023-04-29T03:57:20;31.70;26.00
65072;DHT22;51663;52.310;17.016;2023-04-29T04:00:39;31.70;25.80
65072;DHT22;51663;52.310;17.016;2023-04-29T04:03:42;31.70;25.80
65072;DHT22;51663;52.310;17.016;2023-04-29T04:06:44;31.70;25.90
65072;DHT22;51663;52.310;17.016;2023-04-29T04:09:52;31.90;26.20
65072;DHT22;51663;52.310;17.016;2023-04-29T04:12:57;31.90;25.90
65072;DHT22;51663;52.310;17.016;2023-04-29T04:16:00;31.80;25.80
65072;DHT22;51663;52.310;17.016;2023-04-29T04:19:03;31.90;26.10
65072;DHT22;51663;52.310;17.016;2023-04-29T04:22:07;31.90;26.50
65072;DHT22;51663;52.310;17.016;2023-04-29T04:25:14;31.80;25.90
65072;DHT22;51663;52.310;17.016;2023-04-29T04:28:17;31.90;26.10
65072;DHT22;51663;52.310;17.016;2023-04-29T04:31:21;32.00;25.80
65072;DHT22;51663;52.310;17.016;2023-04-29T04:34:23;32.00;25.70
65072;DHT22;51663;52.310;17.016;2023-04-29T04:37:33;32.10;26.00
65072;DHT22;51663;52.310;17.016;2023-04-29T04:40:40;32.10;25.60
65072;DHT22;51663;52.310;17.016;2023-04-29T04:43:44;31.90;25.60
65072;DHT22;51663;52.310;17.016;2023-04-29T04:46:50;32.00;25.80
65072;DHT22;51663;52.310;17.016;2023-04-29T04:49:53;32.00;25.70
65072;DHT22;51663;52.310;17.016;2023-04-29T04:52:56;31.90;25.90
65072;DHT22;51663;52.310;17.016;2023-04-29T04:56:24;31.80;26.10
65072;DHT22;51663;52.310;17.016;2023-04-29T04:59:27;31.80;26.50
65072;DHT22;51663;52.310;17.016;2023-04-29T05:02:30;31.90;26.40
65072;DHT22;51663;52.310;17.016;2023-04-29T05:05:33;32.00;26.10
65072;DHT22;51663;52.310;17.016;2023-04-29T05:08:39;31.80;26.30
65072;DHT22;51663;52.310;17.016;2023-04-29T05:11:42;31.90;26.40
65072;DHT22;51663;52.310;17.016;2023-04-29T05:14:44;31.60;26.50
65072;DHT22;51663;52.310;17.016;2023-04-29T05:17:47;31.60;26.40
65072;DHT22;51663;52.310;17.016;2023-04-29T05:20:49;31.50;26.30
65072;DHT22;51663;52.310;17.016;2023-04-29T05:23:52;31.50;26.20
65072;DHT22;51663;52.310;17.016;2023-04-29T05:27:09;31.60;26.30
65072;DHT22;51663;52.310;17.016;2023-04-29T05:30:12;31.90;26.20
65072;DHT22;51663;52.310;17.016;2023-04-29T05:33:47;32.20;25.80
65072;DHT22;51663;52.310;17.016;2023-04-29T05:42:07;32.80;25.50
65072;DHT22;51663;52.310;17.016;2023-04-29T05:45:09;33.00;25.30
65072;DHT22;51663;52.310;17.016;2023-04-29T05:48:14;33.20;24.80
65072;DHT22;51663;52.310;17.016;2023-04-29T05:51:21;33.10;25.10
65072;DHT22;51663;52.310;17.016;2023-04-29T05:54:26;33.20;24.90
65072;DHT22;51663;52.310;17.016;2023-04-29T05:57:29;33.40;24.80
65072;DHT22;51663;52.310;17.016;2023-04-29T06:00:32;33.30;24.90
65072;DHT22;51663;52.310;17.016;2023-04-29T06:03:34;33.40;24.80
65072;DHT22;51663;52.310;17.016;2023-04-29T06:06:38;33.40;24.70
65072;DHT22;51663;52.310;17.016;2023-04-29T06:09:40;33.70;24.70
65072;DHT22;51663;52.310;17.016;2023-04-29T06:12:57;33.70;24.70
65072;DHT22;51663;52.310;17.016;2023-04-29T06:16:23;34.00;25.10
65072;DHT22;51663;52.310;17.016;2023-04-29T06:19:57;34.10;24.90
65072;DHT22;51663;52.310;17.016;2023-04-29T06:22:59;34.10;24.60
65072;DHT22;51663;52.310;17.016;2023-04-29T06:26:04;34.00;24.30
65072;DHT22;51663;52.310;17.016;2023-04-29T06:33:43;34.10;24.40
65072;DHT22;51663;52.310;17.016;2023-04-29T06:41:49;34.60;24.20
65072;DHT22;51663;52.310;17.016;2023-04-29T06:45:41;34.60;24.20
65072;DHT22;51663;52.310;17.016;2023-04-29T06:49:48;34.60;24.00
65072;DHT22;51663;52.310;17.016;2023-04-29T06:58:30;35.00;24.00
65072;DHT22;51663;52.310;17.016;2023-04-29T07:02:15;35.00;24.60
65072;DHT22;51663;52.310;17.016;2023-04-29T07:05:18;35.30;23.80
65072;DHT22;51663;52.310;17.016;2023-04-29T07:08:32;35.40;23.70
65072;DHT22;51663;52.310;17.016;2023-04-29T07:11:58;35.60;23.50
65072;DHT22;51663;52.310;17.016;2023-04-29T07:15:35;35.80;23.50
65072;DHT22;51663;52.310;17.016;2023-04-29T07:19:15;36.00;23.50
65072;DHT22;51663;52.310;17.016;2023-04-29T07:22:35;35.80;23.20
65072;DHT22;51663;52.310;17.016;2023-04-29T07:30:49;35.90;23.20
65072;DHT22;51663;52.310;17.016;2023-04-29T07:34:36;36.20;23.10
65072;DHT22;51663;52.310;17.016;2023-04-29T07:47:02;35.60;23.40
65072;DHT22;51663;52.310;17.016;2023-04-29T07:55:40;35.10;23.90
65072;DHT22;51663;52.310;17.016;2023-04-29T08:04:46;34.80;24.20
65072;DHT22;51663;52.310;17.016;2023-04-29T08:08:26;35.00;24.10
65072;DHT22;51663;52.310;17.016;2023-04-29T08:17:26;35.40;23.90
65072;DHT22;51663;52.310;17.016;2023-04-29T08:20:29;35.50;23.70
65072;DHT22;51663;52.310;17.016;2023-04-29T08:23:31;35.80;23.70
65072;DHT22;51663;52.310;17.016;2023-04-29T08:26:34;36.10;23.70
65072;DHT22;51663;52.310;17.016;2023-04-29T08:29:36;36.30;23.10
65072;DHT22;51663;52.310;17.016;2023-04-29T08:32:38;36.30;23.30
65072;DHT22;51663;52.310;17.016;2023-04-29T08:35:41;36.70;23.30
65072;DHT22;51663;52.310;17.016;2023-04-29T08:38:43;36.80;23.10
65072;DHT22;51663;52.310;17.016;2023-04-29T08:41:45;36.70;22.90
65072;DHT22;51663;52.310;17.016;2023-04-29T08:44:52;36.90;23.10
65072;DHT22;51663;52.310;17.016;2023-04-29T08:47:55;37.10;23.20
65072;DHT22;51663;52.310;17.016;2023-04-29T08:50:58;37.30;22.70
65072;DHT22;51663;52.310;17.016;2023-04-29T08:54:01;37.40;22.50
65072;DHT22;51663;52.310;17.016;2023-04-29T08:57:04;37.40;22.70
65072;DHT22;51663;52.310;17.016;2023-04-29T09:00:08;37.50;22.80
65072;DHT22;51663;52.310;17.016;2023-04-29T09:06:22;37.80;23.10
65072;DHT22;51663;52.310;17.016;2023-04-29T09:09:25;38.10;23.40
65072;DHT22;51663;52.310;17.016;2023-04-29T09:12:27;38.10;22.80
65072;DHT22;51663;52.310;17.016;2023-04-29T09:15:37;38.30;23.10
65072;DHT22;51663;52.310;17.016;2023-04-29T09:18:47;38.30;22.50
65072;DHT22;51663;52.310;17.016;2023-04-29T09:21:56;38.60;23.00
65072;DHT22;51663;52.310;17.016;2023-04-29T09:25:11;38.60;23.50
65072;DHT22;51663;52.310;17.016;2023-04-29T09:28:15;38.50;24.30
65072;DHT22;51663;52.310;17.016;2023-04-29T09:31:26;38.30;24.00
65072;DHT22;51663;52.310;17.016;2023-04-29T09:34:31;38.40;24.30
65072;DHT22;51663;52.310;17.016;2023-04-29T09:37:36;38.40;23.40
65072;DHT22;51663;52.310;17.016;2023-04-29T09:40:40;38.40;24.20
65072;DHT22;51663;52.310;17.016;2023-04-29T09:44:06;38.40;23.80
65072;DHT22;51663;52.310;17.016;2023-04-29T09:47:09;38.60;24.20
65072;DHT22;51663;52.310;17.016;2023-04-29T09:50:11;38.60;23.80
65072;DHT22;51663;52.310;17.016;2023-04-29T09:53:28;38.70;23.30
65072;DHT22;51663;52.310;17.016;2023-04-29T09:56:48;38.40;22.90
65072;DHT22;51663;52.310;17.016;2023-04-29T09:59:50;38.10;23.20
65072;DHT22;51663;52.310;17.016;2023-04-29T10:02:53;38.00;23.10
65072;DHT22;51663;52.310;17.016;2023-04-29T10:05:57;37.80;22.90
65072;DHT22;51663;52.310;17.016;2023-04-29T10:09:00;37.80;23.10
65072;DHT22;51663;52.310;17.016;2023-04-29T10:12:04;37.80;23.30
65072;DHT22;51663;52.310;17.016;2023-04-29T10:18:21;38.20;23.10
65072;DHT22;51663;52.310;17.016;2023-04-29T10:21:28;38.20;23.30
65072;DHT22;51663;52.310;17.016;2023-04-29T10:24:35;38.50;23.10
65072;DHT22;51663;52.310;17.016;2023-04-29T10:27:38;38.50;23.10
65072;DHT22;51663;52.310;17.016;2023-04-29T10:30:50;38.50;23.20
65072;DHT22;51663;52.310;17.016;2023-04-29T10:34:02;38.60;23.00
65072;DHT22;51663;52.310;17.016;2023-04-29T10:37:08;38.50;23.70
65072;DHT22;51663;52.310;17.016;2023-04-29T10:43:23;38.40;23.00
65072;DHT22;51663;52.310;17.016;2023-04-29T10:46:25;38.20;23.10
65072;DHT22;51663;52.310;17.016;2023-04-29T10:49:33;38.30;23.10
65072;DHT22;51663;52.310;17.016;2023-04-29T10:52:51;38.40;23.30
65072;DHT22;51663;52.310;17.016;2023-04-29T10:56:02;38.40;23.60
65072;DHT22;51663;52.310;17.016;2023-04-29T11:02:44;37.80;25.70
65072;DHT22;51663;52.310;17.016;2023-04-29T11:05:46;37.70;27.80
65072;DHT22;51663;52.310;17.016;2023-04-29T11:08:59;37.70;28.10
65072;DHT22;51663;52.310;17.016;2023-04-29T11:12:03;37.70;27.90
65072;DHT22;51663;52.310;17.016;2023-04-29T11:15:07;37.60;27.20
65072;DHT22;51663;52.310;17.016;2023-04-29T11:18:12;37.50;28.70
65072;DHT22;51663;52.310;17.016;2023-04-29T11:21:14;37.50;28.60
65072;DHT22;51663;52.310;17.016;2023-04-29T11:24:30;37.50;28.20
65072;DHT22;51663;52.310;17.016;2023-04-29T11:27:38;37.50;28.10
65072;DHT22;51663;52.310;17.016;2023-04-29T11:30:42;37.50;26.80
65072;DHT22;51663;52.310;17.016;2023-04-29T11:34:06;37.50;27.10
65072;DHT22;51663;52.310;17.016;2023-04-29T11:37:09;37.60;27.50
65072;DHT22;51663;52.310;17.016;2023-04-29T11:40:15;37.60;26.80
65072;DHT22;51663;52.310;17.016;2023-04-29T11:43:19;37.70;26.70
65072;DHT22;51663;52.310;17.016;2023-04-29T11:46:30;37.70;27.00
65072;DHT22;51663;52.310;17.016;2023-04-29T11:49:34;37.60;26.60
65072;DHT22;51663;52.310;17.016;2023-04-29T11:53:03;37.80;27.00
65072;DHT22;51663;52.310;17.016;2023-04-29T11:56:22;37.90;27.20
65072;DHT22;51663;52.310;17.016;2023-04-29T11:59:41;38.00;27.30
65072;DHT22;51663;52.310;17.016;2023-04-29T12:02:51;38.10;27.90
65072;DHT22;51663;52.310;17.016;2023-04-29T12:05:56;38.20;28.50
65072;DHT22;51663;52.310;17.016;2023-04-29T12:09:01;38.20;28.70
65072;DHT22;51663;52.310;17.016;2023-04-29T12:12:41;38.10;28.60
65072;DHT22;51663;52.310;17.016;2023-04-29T12:16:15;38.10;28.50
65072;DHT22;51663;52.310;17.016;2023-04-29T12:19:18;38.20;28.90
65072;DHT22;51663;52.310;17.016;2023-04-29T12:22:20;38.40;29.20
65072;DHT22;51663;52.310;17.016;2023-04-29T12:25:33;38.50;27.60
65072;DHT22;51663;52.310;17.016;2023-04-29T12:29:32;38.60;27.90
65072;DHT22;51663;52.310;17.016;2023-04-29T12:32:47;38.70;27.80
65072;DHT22;51663;52.310;17.016;2023-04-29T12:36:00;39.00;26.70
65072;DHT22;51663;52.310;17.016;2023-04-29T12:39:21;39.10;27.90
65072;DHT22;51663;52.310;17.016;2023-04-29T12:42:43;38.90;27.70
65072;DHT22;51663;52.310;17.016;2023-04-29T12:46:46;38.80;26.90
65072;DHT22;51663;52.310;17.016;2023-04-29T12:50:33;38.50;26.40
65072;DHT22;51663;52.310;17.016;2023-04-29T12:54:24;38.20;26.80
65072;DHT22;51663;52.310;17.016;2023-04-29T12:58:06;38.10;27.00
65072;DHT22;51663;52.310;17.016;2023-04-29T13:01:18;38.40;27.10
65072;DHT22;51663;52.310;17.016;2023-04-29T13:05:02;38.20;27.10
65072;DHT22;51663;52.310;17.016;2023-04-29T13:08:13;38.60;26.90
65072;DHT22;51663;52.310;17.016;2023-04-29T13:12:14;38.60;27.00
65072;DHT22;51663;52.310;17.016;2023-04-29T13:16:09;38.80;27.20
65072;DHT22;51663;52.310;17.016;2023-04-29T13:19:27;39.10;26.20
65072;DHT22;51663;52.310;17.016;2023-04-29T13:23:02;39.00;26.30
65072;DHT22;51663;52.310;17.016;2023-04-29T13:26:35;38.90;26.50
65072;DHT22;51663;52.310;17.016;2023-04-29T13:29:46;39.00;26.60
65072;DHT22;51663;52.310;17.016;2023-04-29T13:33:05;39.00;26.80
65072;DHT22;51663;52.310;17.016;2023-04-29T13:36:19;38.70;26.30
65072;DHT22;51663;52.310;17.016;2023-04-29T13:39:31;38.80;26.40
65072;DHT22;51663;52.310;17.016;2023-04-29T13:42:47;38.50;26.20
65072;DHT22;51663;52.310;17.016;2023-04-29T13:45:56;38.30;26.40
65072;DHT22;51663;52.310;17.016;2023-04-29T13:49:02;38.20;27.00
65072;DHT22;51663;52.310;17.016;2023-04-29T13:52:27;38.20;26.80
65072;DHT22;51663;52.310;17.016;2023-04-29T13:55:34;37.50;26.70
65072;DHT22;51663;52.310;17.016;2023-04-29T13:58:39;37.10;25.60
65072;DHT22;51663;52.310;17.016;2023-04-29T14:02:02;36.90;25.50
65072;DHT22;51663;52.310;17.016;2023-04-29T14:09:22;36.40;27.00
65072;DHT22;51663;52.310;17.016;2023-04-29T14:12:32;36.00;27.90
65072;DHT22;51663;52.310;17.016;2023-04-29T14:15:40;35.90;28.90
65072;DHT22;51663;52.310;17.016;2023-04-29T14:18:47;35.70;29.10
65072;DHT22;51663;52.310;17.016;2023-04-29T14:21:49;35.60;29.40
65072;DHT22;51663;52.310;17.016;2023-04-29T14:24:52;35.60;29.70
65072;DHT22;51663;52.310;17.016;2023-04-29T14:31:26;35.40;30.20
65072;DHT22;51663;52.310;17.016;2023-04-29T14:34:54;35.10;30.50
65072;DHT22;51663;52.310;17.016;2023-04-29T14:37:57;35.20;31.40
65072;DHT22;51663;52.310;17.016;2023-04-29T14:41:21;35.10;31.10
65072;DHT22;51663;52.310;17.016;2023-04-29T14:44:55;35.10;31.20
65072;DHT22;51663;52.310;17.016;2023-04-29T14:48:09;35.20;31.10
65072;DHT22;51663;52.310;17.016;2023-04-29T14:51:22;35.00;31.20
65072;DHT22;51663;52.310;17.016;2023-04-29T14:54:24;34.90;31.30
65072;DHT22;51663;52.310;17.016;2023-04-29T14:57:28;34.90;32.40
65072;DHT22;51663;52.310;17.016;2023-04-29T15:00:30;35.00;33.20
65072;DHT22;51663;52.310;17.016;2023-04-29T15:03:33;35.10;33.10
65072;DHT22;51663;52.310;17.016;2023-04-29T15:06:40;35.30;32.60
65072;DHT22;51663;52.310;17.016;2023-04-29T15:09:43;35.50;32.80
65072;DHT22;51663;52.310;17.016;2023-04-29T15:12:46;35.60;32.30
65072;DHT22;51663;52.310;17.016;2023-04-29T15:15:48;35.80;33.00
65072;DHT22;51663;52.310;17.016;2023-04-29T15:18:51;35.80;31.80
65072;DHT22;51663;52.310;17.016;2023-04-29T15:21:53;36.10;32.00
65072;DHT22;51663;52.310;17.016;2023-04-29T15:24:55;36.30;31.30
65072;DHT22;51663;52.310;17.016;2023-04-29T15:27:58;36.40;32.00
65072;DHT22;51663;52.310;17.016;2023-04-29T15:31:00;36.40;32.00
65072;DHT22;51663;52.310;17.016;2023-04-29T15:34:04;36.30;31.00
65072;DHT22;51663;52.310;17.016;2023-04-29T15:37:07;36.40;30.50
65072;DHT22;51663;52.310;17.016;2023-04-29T15:40:09;36.50;30.50
65072;DHT22;51663;52.310;17.016;2023-04-29T15:43:12;36.50;30.30
65072;DHT22;51663;52.310;17.016;2023-04-29T15:46:16;36.40;30.30
65072;DHT22;51663;52.310;17.016;2023-04-29T15:49:41;36.40;30.00
65072;DHT22;51663;52.310;17.016;2023-04-29T15:52:44;36.50;30.10
65072;DHT22;51663;52.310;17.016;2023-04-29T15:55:46;36.50;30.50
65072;DHT22;51663;52.310;17.016;2023-04-29T15:58:48;36.40;30.80
65072;DHT22;51663;52.310;17.016;2023-04-29T16:01:51;36.20;30.20
65072;DHT22;51663;52.310;17.016;2023-04-29T16:04:53;35.60;31.00
65072;DHT22;51663;52.310;17.016;2023-04-29T16:11:24;34.80;32.30
65072;DHT22;51663;52.310;17.016;2023-04-29T16:14:27;34.70;32.40
65072;DHT22;51663;52.310;17.016;2023-04-29T16:17:33;34.70;32.30
65072;DHT22;51663;52.310;17.016;2023-04-29T16:20:35;34.50;32.80
65072;DHT22;51663;52.310;17.016;2023-04-29T16:23:37;34.40;33.20
65072;DHT22;51663;52.310;17.016;2023-04-29T16:26:39;34.10;33.30
65072;DHT22;51663;52.310;17.016;2023-04-29T16:29:42;33.90;33.40
65072;DHT22;51663;52.310;17.016;2023-04-29T16:32:46;33.70;33.70
65072;DHT22;51663;52.310;17.016;2023-04-29T16:35:49;33.10;34.10
65072;DHT22;51663;52.310;17.016;2023-04-29T16:38:51;33.00;34.10
65072;DHT22;51663;52.310;17.016;2023-04-29T16:41:56;32.90;34.00
65072;DHT22;51663;52.310;17.016;2023-04-29T16:45:00;32.90;34.10
65072;DHT22;51663;52.310;17.016;2023-04-29T16:48:03;32.60;35.10
65072;DHT22;51663;52.310;17.016;2023-04-29T16:51:05;32.60;34.50
65072;DHT22;51663;52.310;17.016;2023-04-29T16:54:07;32.40;34.50
65072;DHT22;51663;52.310;17.016;2023-04-29T16:57:09;31.90;34.90
65072;DHT22;51663;52.310;17.016;2023-04-29T17:00:12;32.10;34.60
65072;DHT22;51663;52.310;17.016;2023-04-29T17:03:19;31.80;35.10
65072;DHT22;51663;52.310;17.016;2023-04-29T17:06:29;31.60;34.80
65072;DHT22;51663;52.310;17.016;2023-04-29T17:09:33;31.60;35.30
65072;DHT22;51663;52.310;17.016;2023-04-29T17:12:35;31.90;34.80
65072;DHT22;51663;52.310;17.016;2023-04-29T17:15:37;31.90;34.60
65072;DHT22;51663;52.310;17.016;2023-04-29T17:18:43;31.90;34.20
65072;DHT22;51663;52.310;17.016;2023-04-29T17:21:47;31.60;34.50
65072;DHT22;51663;52.310;17.016;2023-04-29T17:24:50;31.20;34.80
65072;DHT22;51663;52.310;17.016;2023-04-29T17:27:55;30.90;35.60
65072;DHT22;51663;52.310;17.016;2023-04-29T17:30:58;30.90;35.30
65072;DHT22;51663;52.310;17.016;2023-04-29T17:34:12;30.90;35.60
65072;DHT22;51663;52.310;17.016;2023-04-29T17:37:19;31.10;35.20
65072;DHT22;51663;52.310;17.016;2023-04-29T17:40:26;31.10;35.20
65072;DHT22;51663;52.310;17.016;2023-04-29T17:43:34;31.40;35.30
65072;DHT22;51663;52.310;17.016;2023-04-29T17:46:45;31.70;34.50
65072;DHT22;51663;52.310;17.016;2023-04-29T17:49:53;32.00;34.20
65072;DHT22;51663;52.310;17.016;2023-04-29T17:53:06;32.10;33.80
65072;DHT22;51663;52.310;17.016;2023-04-29T17:56:09;32.30;33.40
65072;DHT22;51663;52.310;17.016;2023-04-29T17:59:11;32.20;33.30
65072;DHT22;51663;52.310;17.016;2023-04-29T18:02:13;32.00;33.40
65072;DHT22;51663;52.310;17.016;2023-04-29T18:05:16;32.10;33.50
65072;DHT22;51663;52.310;17.016;2023-04-29T18:08:18;32.10;33.30
65072;DHT22;51663;52.310;17.016;2023-04-29T18:11:29;32.00;33.00
65072;DHT22;51663;52.310;17.016;2023-04-29T18:14:43;31.80;33.50
65072;DHT22;51663;52.310;17.016;2023-04-29T18:17:47;31.90;33.70
65072;DHT22;51663;52.310;17.016;2023-04-29T18:20:49;31.70;33.90
65072;DHT22;51663;52.310;17.016;2023-04-29T18:23:52;31.80;33.60
65072;DHT22;51663;52.310;17.016;2023-04-29T18:26:59;32.00;33.50
65072;DHT22;51663;52.310;17.016;2023-04-29T18:30:05;31.70;33.60
65072;DHT22;51663;52.310;17.016;2023-04-29T18:33:08;31.80;33.60
65072;DHT22;51663;52.310;17.016;2023-04-29T18:36:10;31.80;33.60
65072;DHT22;51663;52.310;17.016;2023-04-29T18:39:15;31.90;33.80
65072;DHT22;51663;52.310;17.016;2023-04-29T18:42:17;32.00;33.60
65072;DHT22;51663;52.310;17.016;2023-04-29T18:45:19;32.20;33.20
65072;DHT22;51663;52.310;17.016;2023-04-29T18:48:22;31.90;33.20
65072;DHT22;51663;52.310;17.016;2023-04-29T18:51:25;31.60;33.90
65072;DHT22;51663;52.310;17.016;2023-04-29T18:54:27;31.20;34.20
65072;DHT22;51663;52.310;17.016;2023-04-29T18:57:29;31.40;34.30
65072;DHT22;51663;52.310;17.016;2023-04-29T19:00:31;31.00;34.50
65072;DHT22;51663;52.310;17.016;2023-04-29T19:03:33;30.80;34.70
65072;DHT22;51663;52.310;17.016;2023-04-29T19:06:36;30.30;35.90
65072;DHT22;51663;52.310;17.016;2023-04-29T19:09:38;30.50;35.30
65072;DHT22;51663;52.310;17.016;2023-04-29T19:12:40;30.50;35.00
65072;DHT22;51663;52.310;17.016;2023-04-29T19:15:43;30.30;35.50
65072;DHT22;51663;52.310;17.016;2023-04-29T19:18:45;30.40;34.90
65072;DHT22;51663;52.310;17.016;2023-04-29T19:21:47;30.30;35.40
65072;DHT22;51663;52.310;17.016;2023-04-29T19:24:49;30.10;34.60
65072;DHT22;51663;52.310;17.016;2023-04-29T19:27:52;29.50;35.60
65072;DHT22;51663;52.310;17.016;2023-04-29T19:30:54;29.90;35.50
65072;DHT22;51663;52.310;17.016;2023-04-29T19:33:57;30.30;35.10
65072;DHT22;51663;52.310;17.016;2023-04-29T19:36:59;30.70;34.50
65072;DHT22;51663;52.310;17.016;2023-04-29T19:40:02;30.60;35.00
65072;DHT22;51663;52.310;17.016;2023-04-29T19:43:04;30.20;35.20
65072;DHT22;51663;52.310;17.016;2023-04-29T19:46:07;30.10;34.70
65072;DHT22;51663;52.310;17.016;2023-04-29T19:49:09;29.10;35.70
65072;DHT22;51663;52.310;17.016;2023-04-29T19:52:13;28.90;35.70
65072;DHT22;51663;52.310;17.016;2023-04-29T19:55:15;28.50;36.50
65072;DHT22;51663;52.310;17.016;2023-04-29T19:58:18;28.80;35.60
65072;DHT22;51663;52.310;17.016;2023-04-29T20:01:20;28.00;36.30
65072;DHT22;51663;52.310;17.016;2023-04-29T20:04:23;28.10;36.40
65072;DHT22;51663;52.310;17.016;2023-04-29T20:07:26;27.90;36.10
65072;DHT22;51663;52.310;17.016;2023-04-29T20:10:28;28.30;35.70
65072;DHT22;51663;52.310;17.016;2023-04-29T20:13:30;28.60;35.10
65072;DHT22;51663;52.310;17.016;2023-04-29T20:16:33;28.30;34.70
65072;DHT22;51663;52.310;17.016;2023-04-29T20:19:36;28.30;34.30
65072;DHT22;51663;52.310;17.016;2023-04-29T20:22:38;28.80;33.60
65072;DHT22;51663;52.310;17.016;2023-04-29T20:25:40;29.30;32.30
65072;DHT22;51663;52.310;17.016;2023-04-29T20:28:43;29.00;31.10
65072;DHT22;51663;52.310;17.016;2023-04-29T20:31:45;28.50;31.30
65072;DHT22;51663;52.310;17.016;2023-04-29T20:34:47;28.70;30.80
65072;DHT22;51663;52.310;17.016;2023-04-29T20:37:50;28.20;30.70
65072;DHT22;51663;52.310;17.016;2023-04-29T20:40:52;28.40;30.50
65072;DHT22;51663;52.310;17.016;2023-04-29T20:43:56;28.90;30.10
65072;DHT22;51663;52.310;17.016;2023-04-29T20:46:59;28.60;30.70
65072;DHT22;51663;52.310;17.016;2023-04-29T20:50:02;29.10;30.10
65072;DHT22;51663;52.310;17.016;2023-04-29T20:53:05;29.30;30.10